sensor_id;sensor_type;location;lat;lon;timestamp;pressure;altitude;pressure_sealevel;temperature;humidity
5146;BME280;2591;48.144;15.152;2023-08-07T00:02:37;74920.38;;;-144.65;89.42
5146;BME280;2591;48.144;15.152;2023-08-07T00:05:26;74904.09;;;-144.65;89.47
5146;BME280;2591;48.144;15.152;2023-08-07T00:08:12;74916.31;;;-144.65;89.36
5146;BME280;2591;48.144;15.152;2023-08-07T00:11:05;74912.22;;;-144.65;88.88
5146;BME280;2591;48.144;15.152;2023-08-07T00:13:52;74902.03;;;-144.65;87.90
5146;BME280;2591;48.144;15.152;2023-08-07T00:16:41;74912.22;;;-144.65;88.01
5146;BME280;2591;48.144;15.152;2023-08-07T00:19:27;74908.16;;;-144.65;88.04
5146;BME280;2591;48.144;15.152;2023-08-07T00:22:14;74912.22;;;-144.65;87.84
5146;BME280;2591;48.144;15.152;2023-08-07T00:25:04;74895.94;;;-144.65;86.60
5146;BME280;2591;48.144;15.152;2023-08-07T00:27:50;74904.09;;;-144.65;86.24
5146;BME280;2591;48.144;15.152;2023-08-07T00:30:36;74902.03;;;-144.65;85.78
5146;BME280;2591;48.144;15.152;2023-08-07T00:33:24;74900.00;;;-144.65;86.06
5146;BME280;2591;48.144;15.152;2023-08-07T00:36:11;74910.19;;;-144.65;86.24
5146;BME280;2591;48.144;15.152;2023-08-07T00:38:57;74914.28;;;-144.65;85.82
5146;BME280;2591;48.144;15.152;2023-08-07T00:41:44;74916.31;;;-144.65;85.90
5146;BME280;2591;48.144;15.152;2023-08-07T00:44:30;74920.38;;;-144.65;86.04
5146;BME280;2591;48.144;15.152;2023-08-07T00:47:16;74916.31;;;-144.65;85.78
5146;BME280;2591;48.144;15.152;2023-08-07T00:50:05;74895.94;;;-144.65;84.85
5146;BME280;2591;48.144;15.152;2023-08-07T00:52:52;74912.22;;;-144.65;84.55
5146;BME280;2591;48.144;15.152;2023-08-07T00:55:39;74912.22;;;-144.65;84.55
5146;BME280;2591;48.144;15.152;2023-08-07T00:58:25;74924.47;;;-144.65;85.19
5146;BME280;2591;48.144;15.152;2023-08-07T01:01:11;74920.38;;;-144.65;85.44
5146;BME280;2591;48.144;15.152;2023-08-07T01:03:58;74920.38;;;-144.65;84.30
5146;BME280;2591;48.144;15.152;2023-08-07T01:06:46;74910.19;;;-144.65;84.37
5146;BME280;2591;48.144;15.152;2023-08-07T01:09:33;74920.38;;;-144.65;84.26
5146;BME280;2591;48.144;15.152;2023-08-07T01:12:23;74910.19;;;-144.65;84.15
5146;BME280;2591;48.144;15.152;2023-08-07T01:15:15;74930.56;;;-144.65;84.49
5146;BME280;2591;48.144;15.152;2023-08-07T01:18:06;74924.47;;;-144.65;84.22
5146;BME280;2591;48.144;15.152;2023-08-07T01:20:53;74920.38;;;-144.65;83.38
5146;BME280;2591;48.144;15.152;2023-08-07T01:23:41;74914.28;;;-144.65;83.61
5146;BME280;2591;48.144;15.152;2023-08-07T01:26:27;74912.22;;;-144.65;83.31
5146;BME280;2591;48.144;15.152;2023-08-07T01:29:21;74918.34;;;-144.65;82.60
5146;BME280;2591;48.144;15.152;2023-08-07T01:32:13;74908.16;;;-144.65;82.26
5146;BME280;2591;48.144;15.152;2023-08-07T01:35:05;74922.44;;;-144.65;82.55
5146;BME280;2591;48.144;15.152;2023-08-07T01:37:55;74912.22;;;-144.65;81.96
5146;BME280;2591;48.144;15.152;2023-08-07T01:40:44;74918.34;;;-144.65;81.21
5146;BME280;2591;48.144;15.152;2023-08-07T01:43:31;74900.00;;;-144.65;81.08
5146;BME280;2591;48.144;15.152;2023-08-07T01:46:18;74902.03;;;-144.65;81.37
5146;BME280;2591;48.144;15.152;2023-08-07T01:49:04;74924.47;;;-144.65;81.71
5146;BME280;2591;48.144;15.152;2023-08-07T01:51:51;74940.78;;;-144.65;82.13
5146;BME280;2591;48.144;15.152;2023-08-07T01:54:37;74944.84;;;-144.65;83.19
5146;BME280;2591;48.144;15.152;2023-08-07T01:57:24;74942.81;;;-144.65;82.35
5146;BME280;2591;48.144;15.152;2023-08-07T02:00:11;74920.38;;;-144.65;81.93
5146;BME280;2591;48.144;15.152;2023-08-07T02:02:58;74936.69;;;-144.65;82.00
5146;BME280;2591;48.144;15.152;2023-08-07T02:05:45;74944.84;;;-144.65;82.14
5146;BME280;2591;48.144;15.152;2023-08-07T02:08:32;74932.63;;;-144.65;81.13
5146;BME280;2591;48.144;15.152;2023-08-07T02:11:18;74924.47;;;-144.65;80.76
5146;BME280;2591;48.144;15.152;2023-08-07T02:14:07;74936.69;;;-144.65;81.18
5146;BME280;2591;48.144;15.152;2023-08-07T02:16:53;74948.91;;;-144.65;82.84
5146;BME280;2591;48.144;15.152;2023-08-07T02:19:40;74946.88;;;-144.65;83.01
5146;BME280;2591;48.144;15.152;2023-08-07T02:22:26;74967.25;;;-144.65;84.75
5146;BME280;2591;48.144;15.152;2023-08-07T02:25:13;74981.53;;;-144.65;86.39
5146;BME280;2591;48.144;15.152;2023-08-07T02:27:59;74993.75;;;-144.65;87.54
5146;BME280;2591;48.144;15.152;2023-08-07T02:30:47;74997.84;;;-144.65;87.76
5146;BME280;2591;48.144;15.152;2023-08-07T02:33:36;75010.06;;;-144.65;89.65
5146;BME280;2591;48.144;15.152;2023-08-07T02:36:22;75030.44;;;-144.65;92.31
5146;BME280;2591;48.144;15.152;2023-08-07T02:39:09;75026.38;;;-144.65;92.64
5146;BME280;2591;48.144;15.152;2023-08-07T02:41:55;75034.53;;;-144.65;92.71
5146;BME280;2591;48.144;15.152;2023-08-07T02:44:41;75046.75;;;-144.65;94.75
5146;BME280;2591;48.144;15.152;2023-08-07T02:47:29;75036.56;;;-144.65;95.15
5146;BME280;2591;48.144;15.152;2023-08-07T02:50:15;75052.88;;;-144.65;95.46
5146;BME280;2591;48.144;15.152;2023-08-07T02:53:02;75042.69;;;-144.65;95.08
5146;BME280;2591;48.144;15.152;2023-08-07T02:55:48;75042.69;;;-144.65;95.48
5146;BME280;2591;48.144;15.152;2023-08-07T02:58:35;75046.75;;;-144.65;95.95
5146;BME280;2591;48.144;15.152;2023-08-07T03:01:21;75054.91;;;-144.65;96.86
5146;BME280;2591;48.144;15.152;2023-08-07T03:04:09;75046.75;;;-144.65;96.41
5146;BME280;2591;48.144;15.152;2023-08-07T03:06:55;75046.75;;;-144.65;94.99
5146;BME280;2591;48.144;15.152;2023-08-07T03:09:45;75036.56;;;-144.65;95.12
5146;BME280;2591;48.144;15.152;2023-08-07T03:12:31;75054.91;;;-144.65;95.83
5146;BME280;2591;48.144;15.152;2023-08-07T03:15:17;75063.06;;;-144.65;96.34
5146;BME280;2591;48.144;15.152;2023-08-07T03:18:03;75075.28;;;-144.65;97.53
5146;BME280;2591;48.144;15.152;2023-08-07T03:20:51;75091.59;;;-144.65;99.50
5146;BME280;2591;48.144;15.152;2023-08-07T03:23:37;75095.66;;;-144.65;100.00
5146;BME280;2591;48.144;15.152;2023-08-07T03:26:24;75103.81;;;-144.65;100.00
5146;BME280;2591;48.144;15.152;2023-08-07T03:29:10;75124.19;;;-144.65;100.00
5146;BME280;2591;48.144;15.152;2023-08-07T03:31:56;75128.28;;;-144.65;100.00
5146;BME280;2591;48.144;15.152;2023-08-07T03:34:42;75132.34;;;-144.65;100.00
5146;BME280;2591;48.144;15.152;2023-08-07T03:37:30;75138.47;;;-144.65;100.00
5146;BME280;2591;48.144;15.152;2023-08-07T03:40:17;75144.59;;;-144.65;100.00
5146;BME280;2591;48.144;15.152;2023-08-07T03:43:03;75150.69;;;-144.65;100.00
5146;BME280;2591;48.144;15.152;2023-08-07T03:45:54;75160.88;;;-144.65;100.00
5146;BME280;2591;48.144;15.152;2023-08-07T03:48:44;75160.88;;;-144.65;100.00
5146;BME280;2591;48.144;15.152;2023-08-07T03:51:30;75164.97;;;-144.65;100.00
5146;BME280;2591;48.144;15.152;2023-08-07T03:54:18;75162.94;;;-144.65;100.00
5146;BME280;2591;48.144;15.152;2023-08-07T03:57:05;75169.03;;;-144.65;100.00
5146;BME280;2591;48.144;15.152;2023-08-07T03:59:53;75193.50;;;-144.65;100.00
5146;BME280;2591;48.144;15.152;2023-08-07T04:02:40;75181.28;;;-144.65;100.00
5146;BME280;2591;48.144;15.152;2023-08-07T04:05:27;75185.34;;;-144.65;100.00
5146;BME280;2591;48.144;15.152;2023-08-07T04:08:13;75209.81;;;-144.65;100.00
5146;BME280;2591;48.144;15.152;2023-08-07T04:11:01;75209.81;;;-144.65;100.00
5146;BME280;2591;48.144;15.152;2023-08-07T04:13:48;75226.13;;;-144.65;100.00
5146;BME280;2591;48.144;15.152;2023-08-07T04:16:34;75234.28;;;-144.65;100.00
5146;BME280;2591;48.144;15.152;2023-08-07T04:19:22;75230.19;;;-144.65;100.00
5146;BME280;2591;48.144;15.152;2023-08-07T04:22:08;75246.50;;;-144.65;100.00
5146;BME280;2591;48.144;15.152;2023-08-07T04:24:54;75246.50;;;-144.65;100.00
5146;BME280;2591;48.144;15.152;2023-08-07T04:27:42;75252.63;;;-144.65;100.00
5146;BME280;2591;48.144;15.152;2023-08-07T04:30:28;75250.56;;;-144.65;100.00
5146;BME280;2591;48.144;15.152;2023-08-07T04:33:14;75258.72;;;-144.65;100.00
5146;BME280;2591;48.144;15.152;2023-08-07T04:36:00;75250.56;;;-144.65;100.00
5146;BME280;2591;48.144;15.152;2023-08-07T04:38:47;75246.50;;;-144.65;100.00
5146;BME280;2591;48.144;15.152;2023-08-07T04:41:33;75246.50;;;-144.65;100.00
5146;BME280;2591;48.144;15.152;2023-08-07T04:44:21;75248.53;;;-144.65;100.00
5146;BME280;2591;48.144;15.152;2023-08-07T04:47:07;75246.50;;;-144.65;100.00
5146;BME280;2591;48.144;15.152;2023-08-07T04:49:54;75262.81;;;-144.65;100.00
5146;BME280;2591;48.144;15.152;2023-08-07T04:52:40;75262.81;;;-144.65;100.00
5146;BME280;2591;48.144;15.152;2023-08-07T04:55:26;75277.06;;;-144.65;100.00
5146;BME280;2591;48.144;15.152;2023-08-07T04:58:12;75275.03;;;-144.65;100.00
5146;BME280;2591;48.144;15.152;2023-08-07T05:01:00;75275.03;;;-144.65;100.00
5146;BME280;2591;48.144;15.152;2023-08-07T05:03:46;75275.03;;;-144.65;100.00
5146;BME280;2591;48.144;15.152;2023-08-07T05:06:33;75279.09;;;-144.65;100.00
5146;BME280;2591;48.144;15.152;2023-08-07T05:09:20;75287.25;;;-144.65;100.00
5146;BME280;2591;48.144;15.152;2023-08-07T05:12:07;75287.25;;;-144.65;100.00
5146;BME280;2591;48.144;15.152;2023-08-07T05:14:53;75283.19;;;-144.65;100.00
5146;BME280;2591;48.144;15.152;2023-08-07T05:17:41;75295.41;;;-144.65;100.00
5146;BME280;2591;48.144;15.152;2023-08-07T05:20:27;75291.34;;;-144.65;100.00
5146;BME280;2591;48.144;15.152;2023-08-07T05:23:13;75305.59;;;-144.65;100.00
5146;BME280;2591;48.144;15.152;2023-08-07T05:26:00;75291.34;;;-144.65;100.00
5146;BME280;2591;48.144;15.152;2023-08-07T05:28:46;75291.34;;;-144.65;100.00
5146;BME280;2591;48.144;15.152;2023-08-07T05:31:33;75295.41;;;-144.65;100.00
5146;BME280;2591;48.144;15.152;2023-08-07T05:34:21;75293.38;;;-144.65;100.00
5146;BME280;2591;48.144;15.152;2023-08-07T05:37:07;75309.69;;;-144.65;100.00
5146;BME280;2591;48.144;15.152;2023-08-07T05:39:54;75307.66;;;-144.65;100.00
5146;BME280;2591;48.144;15.152;2023-08-07T05:42:40;75315.81;;;-144.65;100.00
5146;BME280;2591;48.144;15.152;2023-08-07T05:45:27;75319.88;;;-144.65;100.00
5146;BME280;2591;48.144;15.152;2023-08-07T05:48:13;75307.66;;;-144.65;100.00
5146;BME280;2591;48.144;15.152;2023-08-07T05:51:02;75307.66;;;-144.65;100.00
5146;BME280;2591;48.144;15.152;2023-08-07T05:53:49;75338.22;;;-144.65;100.00
5146;BME280;2591;48.144;15.152;2023-08-07T05:56:37;75334.16;;;-144.65;100.00
5146;BME280;2591;48.144;15.152;2023-08-07T05:59:24;75344.34;;;-144.65;100.00
5146;BME280;2591;48.144;15.152;2023-08-07T06:02:10;75344.34;;;-144.65;100.00
5146;BME280;2591;48.144;15.152;2023-08-07T06:04:57;75356.56;;;-144.65;100.00
5146;BME280;2591;48.144;15.152;2023-08-07T06:07:45;75348.41;;;-144.65;100.00
5146;BME280;2591;48.144;15.152;2023-08-07T06:10:31;75344.34;;;-144.65;100.00
5146;BME280;2591;48.144;15.152;2023-08-07T06:13:18;75344.34;;;-144.65;100.00
5146;BME280;2591;48.144;15.152;2023-08-07T06:16:19;75317.84;;;-144.65;100.00
5146;BME280;2591;48.144;15.152;2023-08-07T06:19:06;75326.00;;;-144.65;100.00
5146;BME280;2591;48.144;15.152;2023-08-07T06:22:12;75336.19;;;-144.65;100.00
5146;BME280;2591;48.144;15.152;2023-08-07T06:25:00;75323.94;;;-144.65;100.00
5146;BME280;2591;48.144;15.152;2023-08-07T06:27:47;75321.91;;;-144.65;100.00
5146;BME280;2591;48.144;15.152;2023-08-07T06:30:33;75321.91;;;-144.65;100.00
5146;BME280;2591;48.144;15.152;2023-08-07T06:33:20;75319.88;;;-144.65;100.00
5146;BME280;2591;48.144;15.152;2023-08-07T06:36:06;75315.81;;;-144.65;100.00
5146;BME280;2591;48.144;15.152;2023-08-07T06:38:53;75299.50;;;-144.65;100.00
5146;BME280;2591;48.144;15.152;2023-08-07T06:41:41;75295.41;;;-144.65;100.00
5146;BME280;2591;48.144;15.152;2023-08-07T06:44:28;75307.66;;;-144.65;100.00
5146;BME280;2591;48.144;15.152;2023-08-07T06:47:14;75289.31;;;-144.65;100.00
5146;BME280;2591;48.144;15.152;2023-08-07T06:50:00;75287.25;;;-144.65;100.00
5146;BME280;2591;48.144;15.152;2023-08-07T06:52:47;75295.41;;;-144.65;100.00
5146;BME280;2591;48.144;15.152;2023-08-07T06:55:33;75297.47;;;-144.65;100.00
5146;BME280;2591;48.144;15.152;2023-08-07T06:58:21;75321.91;;;-144.65;100.00
5146;BME280;2591;48.144;15.152;2023-08-07T07:01:07;75319.88;;;-144.65;100.00
5146;BME280;2591;48.144;15.152;2023-08-07T07:03:54;75338.22;;;-144.65;100.00
5146;BME280;2591;48.144;15.152;2023-08-07T07:06:41;75344.34;;;-144.65;100.00
5146;BME280;2591;48.144;15.152;2023-08-07T07:09:27;75364.72;;;-144.65;100.00
5146;BME280;2591;48.144;15.152;2023-08-07T07:12:14;75389.19;;;-144.65;100.00
5146;BME280;2591;48.144;15.152;2023-08-07T07:15:02;75393.25;;;-144.65;100.00
5146;BME280;2591;48.144;15.152;2023-08-07T07:17:48;75405.50;;;-144.65;100.00
5146;BME280;2591;48.144;15.152;2023-08-07T07:20:34;75440.13;;;-144.65;100.00
5146;BME280;2591;48.144;15.152;2023-08-07T07:23:21;75444.22;;;-144.65;100.00
5146;BME280;2591;48.144;15.152;2023-08-07T07:26:07;75450.34;;;-144.65;100.00
5146;BME280;2591;48.144;15.152;2023-08-07T07:28:53;75450.34;;;-144.65;100.00
5146;BME280;2591;48.144;15.152;2023-08-07T07:31:41;75446.25;;;-144.65;100.00
5146;BME280;2591;48.144;15.152;2023-08-07T07:34:28;75446.25;;;-144.65;100.00
5146;BME280;2591;48.144;15.152;2023-08-07T07:37:14;75413.66;;;-144.65;100.00
5146;BME280;2591;48.144;15.152;2023-08-07T07:40:02;75421.78;;;-144.65;100.00
5146;BME280;2591;48.144;15.152;2023-08-07T07:42:49;75436.06;;;-144.65;100.00
5146;BME280;2591;48.144;15.152;2023-08-07T07:45:36;75438.09;;;-144.65;100.00
5146;BME280;2591;48.144;15.152;2023-08-07T07:48:24;75429.94;;;-144.65;100.00
5146;BME280;2591;48.144;15.152;2023-08-07T07:51:10;75429.94;;;-144.65;100.00
5146;BME280;2591;48.144;15.152;2023-08-07T07:53:57;75413.66;;;-144.65;100.00
5146;BME280;2591;48.144;15.152;2023-08-07T07:56:59;75411.59;;;-144.65;100.00
5146;BME280;2591;48.144;15.152;2023-08-07T07:59:45;75417.72;;;-144.65;100.00
5146;BME280;2591;48.144;15.152;2023-08-07T08:02:31;75421.78;;;-144.65;100.00
5146;BME280;2591;48.144;15.152;2023-08-07T08:05:19;75434.03;;;-144.65;100.00
5146;BME280;2591;48.144;15.152;2023-08-07T08:08:06;75434.03;;;-144.65;100.00
5146;BME280;2591;48.144;15.152;2023-08-07T08:10:53;75460.53;;;-144.65;100.00
5146;BME280;2591;48.144;15.152;2023-08-07T08:13:40;75458.50;;;-144.65;100.00
5146;BME280;2591;48.144;15.152;2023-08-07T08:16:26;75462.56;;;-144.65;100.00
5146;BME280;2591;48.144;15.152;2023-08-07T08:19:12;75474.78;;;-144.65;100.00
5146;BME280;2591;48.144;15.152;2023-08-07T08:22:02;75487.03;;;-144.65;100.00
5146;BME280;2591;48.144;15.152;2023-08-07T08:24:48;75487.03;;;-144.65;100.00
5146;BME280;2591;48.144;15.152;2023-08-07T08:27:35;75499.25;;;-144.65;100.00
5146;BME280;2591;48.144;15.152;2023-08-07T08:30:21;75499.25;;;-144.65;100.00
5146;BME280;2591;48.144;15.152;2023-08-07T08:33:08;75511.47;;;-144.65;100.00
5146;BME280;2591;48.144;15.152;2023-08-07T08:35:59;75529.84;;;-144.65;100.00
5146;BME280;2591;48.144;15.152;2023-08-07T08:38:49;75519.63;;;-144.65;100.00
5146;BME280;2591;48.144;15.152;2023-08-07T08:41:37;75527.78;;;-144.65;100.00
5146;BME280;2591;48.144;15.152;2023-08-07T08:44:24;75523.72;;;-144.65;100.00
5146;BME280;2591;48.144;15.152;2023-08-07T08:47:13;75531.88;;;-144.65;100.00
5146;BME280;2591;48.144;15.152;2023-08-07T08:50:01;75535.94;;;-144.65;100.00
5146;BME280;2591;48.144;15.152;2023-08-07T08:52:51;75533.91;;;-144.65;100.00
5146;BME280;2591;48.144;15.152;2023-08-07T08:55:39;75537.97;;;-144.65;100.00
5146;BME280;2591;48.144;15.152;2023-08-07T08:58:28;75527.78;;;-144.65;100.00
5146;BME280;2591;48.144;15.152;2023-08-07T09:01:15;75519.63;;;-144.65;100.00
5146;BME280;2591;48.144;15.152;2023-08-07T09:04:03;75531.88;;;-144.65;100.00
5146;BME280;2591;48.144;15.152;2023-08-07T09:06:50;75521.69;;;-144.65;100.00
5146;BME280;2591;48.144;15.152;2023-08-07T09:09:37;75519.63;;;-144.65;100.00
5146;BME280;2591;48.144;15.152;2023-08-07T09:12:26;75509.44;;;-144.65;100.00
5146;BME280;2591;48.144;15.152;2023-08-07T09:15:16;75515.56;;;-144.65;100.00
5146;BME280;2591;48.144;15.152;2023-08-07T09:18:05;75531.88;;;-144.65;100.00
5146;BME280;2591;48.144;15.152;2023-08-07T09:20:55;75529.84;;;-144.65;100.00
5146;BME280;2591;48.144;15.152;2023-08-07T09:23:42;75535.94;;;-144.65;100.00
5146;BME280;2591;48.144;15.152;2023-08-07T09:26:28;75535.94;;;-144.65;100.00
5146;BME280;2591;48.144;15.152;2023-08-07T09:29:16;75540.03;;;-144.65;100.00
5146;BME280;2591;48.144;15.152;2023-08-07T09:32:07;75548.19;;;-144.65;100.00
5146;BME280;2591;48.144;15.152;2023-08-07T09:34:54;75550.22;;;-144.65;100.00
5146;BME280;2591;48.144;15.152;2023-08-07T09:37:43;75546.13;;;-144.65;100.00
5146;BME280;2591;48.144;15.152;2023-08-07T09:40:30;75540.03;;;-144.65;100.00
5146;BME280;2591;48.144;15.152;2023-08-07T09:43:20;75544.09;;;-144.65;100.00
5146;BME280;2591;48.144;15.152;2023-08-07T09:46:09;75521.69;;;-144.65;100.00
5146;BME280;2591;48.144;15.152;2023-08-07T09:48:57;75535.94;;;-144.65;100.00
5146;BME280;2591;48.144;15.152;2023-08-07T09:51:45;75529.84;;;-144.65;100.00
5146;BME280;2591;48.144;15.152;2023-08-07T09:54:32;75523.72;;;-144.65;100.00
5146;BME280;2591;48.144;15.152;2023-08-07T09:57:19;75519.63;;;-144.65;100.00
5146;BME280;2591;48.144;15.152;2023-08-07T10:00:08;75515.56;;;-144.65;100.00
5146;BME280;2591;48.144;15.152;2023-08-07T10:02:57;75517.59;;;-144.65;100.00
5146;BME280;2591;48.144;15.152;2023-08-07T10:05:44;75511.47;;;-144.65;100.00
5146;BME280;2591;48.144;15.152;2023-08-07T10:08:32;75497.22;;;-144.65;100.00
5146;BME280;2591;48.144;15.152;2023-08-07T10:11:21;75495.19;;;-144.65;100.00
5146;BME280;2591;48.144;15.152;2023-08-07T10:14:08;75503.34;;;-144.65;100.00
5146;BME280;2591;48.144;15.152;2023-08-07T10:16:54;75507.41;;;-144.65;100.00
5146;BME280;2591;48.144;15.152;2023-08-07T10:19:43;75521.69;;;-144.65;100.00
5146;BME280;2591;48.144;15.152;2023-08-07T10:22:30;75515.56;;;-144.65;100.00
5146;BME280;2591;48.144;15.152;2023-08-07T10:25:20;75535.94;;;-144.65;100.00
5146;BME280;2591;48.144;15.152;2023-08-07T10:28:10;75523.72;;;-144.65;100.00
5146;BME280;2591;48.144;15.152;2023-08-07T10:30:58;75519.63;;;-144.65;100.00
5146;BME280;2591;48.144;15.152;2023-08-07T10:33:46;75529.84;;;-144.65;100.00
5146;BME280;2591;48.144;15.152;2023-08-07T10:36:36;75525.75;;;-144.65;100.00
5146;BME280;2591;48.144;15.152;2023-08-07T10:39:24;75535.94;;;-144.65;100.00
5146;BME280;2591;48.144;15.152;2023-08-07T10:42:11;75529.84;;;-144.65;100.00
5146;BME280;2591;48.144;15.152;2023-08-07T10:45:01;75511.47;;;-144.65;100.00
5146;BME280;2591;48.144;15.152;2023-08-07T10:47:57;75503.34;;;-144.65;100.00
5146;BME280;2591;48.144;15.152;2023-08-07T10:50:49;75487.03;;;-144.65;100.00
5146;BME280;2591;48.144;15.152;2023-08-07T10:53:40;75507.41;;;-144.65;100.00
5146;BME280;2591;48.144;15.152;2023-08-07T10:56:30;75487.03;;;-144.65;100.00
5146;BME280;2591;48.144;15.152;2023-08-07T10:59:17;75480.91;;;-144.65;100.00
5146;BME280;2591;48.144;15.152;2023-08-07T11:02:07;75478.88;;;-144.65;100.00
5146;BME280;2591;48.144;15.152;2023-08-07T11:04:58;75468.69;;;-144.65;100.00
5146;BME280;2591;48.144;15.152;2023-08-07T11:07:45;75464.59;;;-144.65;100.00
5146;BME280;2591;48.144;15.152;2023-08-07T11:10:33;75466.63;;;-144.65;100.00
5146;BME280;2591;48.144;15.152;2023-08-07T11:13:19;75466.63;;;-144.65;100.00
5146;BME280;2591;48.144;15.152;2023-08-07T11:16:08;75464.59;;;-144.65;100.00
5146;BME280;2591;48.144;15.152;2023-08-07T11:18:54;75446.25;;;-144.65;100.00
5146;BME280;2591;48.144;15.152;2023-08-07T11:21:41;75458.50;;;-144.65;100.00
5146;BME280;2591;48.144;15.152;2023-08-07T11:24:28;75452.38;;;-144.65;100.00
5146;BME280;2591;48.144;15.152;2023-08-07T11:27:16;75450.34;;;-144.65;100.00
5146;BME280;2591;48.144;15.152;2023-08-07T11:30:02;75425.88;;;-144.65;100.00
5146;BME280;2591;48.144;15.152;2023-08-07T11:32:50;75427.91;;;-144.65;100.00
5146;BME280;2591;48.144;15.152;2023-08-07T11:35:40;75425.88;;;-144.65;100.00
5146;BME280;2591;48.144;15.152;2023-08-07T11:38:31;75399.38;;;-144.65;100.00
5146;BME280;2591;48.144;15.152;2023-08-07T11:41:18;75372.88;;;-144.65;100.00
5146;BME280;2591;48.144;15.152;2023-08-07T11:44:08;75368.78;;;-144.65;100.00
5146;BME280;2591;48.144;15.152;2023-08-07T11:46:55;75358.59;;;-144.65;100.00
5146;BME280;2591;48.144;15.152;2023-08-07T11:49:42;75344.34;;;-144.65;100.00
5146;BME280;2591;48.144;15.152;2023-08-07T11:52:29;75315.81;;;-144.65;100.00
5146;BME280;2591;48.144;15.152;2023-08-07T11:55:17;75311.72;;;-144.65;100.00
5146;BME280;2591;48.144;15.152;2023-08-07T11:58:03;75326.00;;;-144.65;100.00
5146;BME280;2591;48.144;15.152;2023-08-07T12:00:51;75328.03;;;-144.65;100.00
5146;BME280;2591;48.144;15.152;2023-08-07T12:03:40;75330.06;;;-144.65;100.00
5146;BME280;2591;48.144;15.152;2023-08-07T12:06:27;75323.94;;;-144.65;100.00
5146;BME280;2591;48.144;15.152;2023-08-07T12:09:13;75279.09;;;-144.65;100.00
5146;BME280;2591;48.144;15.152;2023-08-07T12:12:02;75264.84;;;-144.65;100.00
5146;BME280;2591;48.144;15.152;2023-08-07T12:14:52;75250.56;;;-144.65;100.00
5146;BME280;2591;48.144;15.152;2023-08-07T12:17:40;75252.63;;;-144.65;100.00
5146;BME280;2591;48.144;15.152;2023-08-07T12:20:27;75250.56;;;-144.65;100.00
5146;BME280;2591;48.144;15.152;2023-08-07T12:23:14;75250.56;;;-144.65;100.00
5146;BME280;2591;48.144;15.152;2023-08-07T12:26:02;75262.81;;;-144.65;100.00
5146;BME280;2591;48.144;15.152;2023-08-07T12:28:52;75279.09;;;-144.65;100.00
5146;BME280;2591;48.144;15.152;2023-08-07T12:31:39;75264.84;;;-144.65;100.00
5146;BME280;2591;48.144;15.152;2023-08-07T12:34:27;75279.09;;;-144.65;100.00
5146;BME280;2591;48.144;15.152;2023-08-07T12:37:16;75281.16;;;-144.65;100.00
5146;BME280;2591;48.144;15.152;2023-08-07T12:40:03;75299.50;;;-144.65;100.00
5146;BME280;2591;48.144;15.152;2023-08-07T12:42:53;75309.69;;;-144.65;100.00
5146;BME280;2591;48.144;15.152;2023-08-07T12:45:40;75326.00;;;-144.65;100.00
5146;BME280;2591;48.144;15.152;2023-08-07T12:48:29;75342.28;;;-144.65;100.00
5146;BME280;2591;48.144;15.152;2023-08-07T12:51:17;75356.56;;;-144.65;100.00
5146;BME280;2591;48.144;15.152;2023-08-07T12:54:04;75383.06;;;-144.65;100.00
5146;BME280;2591;48.144;15.152;2023-08-07T12:56:50;75405.50;;;-144.65;100.00
5146;BME280;2591;48.144;15.152;2023-08-07T12:59:41;75405.50;;;-144.65;100.00
5146;BME280;2591;48.144;15.152;2023-08-07T13:02:30;75401.41;;;-144.65;100.00
5146;BME280;2591;48.144;15.152;2023-08-07T13:05:17;75421.78;;;-144.65;100.00
5146;BME280;2591;48.144;15.152;2023-08-07T13:08:06;75419.75;;;-144.65;100.00
5146;BME280;2591;48.144;15.152;2023-08-07T13:10:54;75425.88;;;-144.65;100.00
5146;BME280;2591;48.144;15.152;2023-08-07T13:13:40;75434.03;;;-144.65;100.00
5146;BME280;2591;48.144;15.152;2023-08-07T13:16:30;75448.28;;;-144.65;100.00
5146;BME280;2591;48.144;15.152;2023-08-07T13:19:16;75434.03;;;-144.65;100.00
5146;BME280;2591;48.144;15.152;2023-08-07T13:22:03;75440.13;;;-144.65;100.00
5146;BME280;2591;48.144;15.152;2023-08-07T13:24:52;75429.94;;;-144.65;100.00
5146;BME280;2591;48.144;15.152;2023-08-07T13:27:38;75417.72;;;-144.65;100.00
5146;BME280;2591;48.144;15.152;2023-08-07T13:30:25;75417.72;;;-144.65;100.00
5146;BME280;2591;48.144;15.152;2023-08-07T13:33:15;75405.50;;;-144.65;100.00
5146;BME280;2591;48.144;15.152;2023-08-07T13:36:02;75401.41;;;-144.65;100.00
5146;BME280;2591;48.144;15.152;2023-08-07T13:38:48;75403.44;;;-144.65;100.00
5146;BME280;2591;48.144;15.152;2023-08-07T13:41:35;75409.56;;;-144.65;100.00
5146;BME280;2591;48.144;15.152;2023-08-07T13:44:22;75401.41;;;-144.65;100.00
5146;BME280;2591;48.144;15.152;2023-08-07T13:47:08;75397.34;;;-144.65;100.00
5146;BME280;2591;48.144;15.152;2023-08-07T13:49:55;75401.41;;;-144.65;100.00
5146;BME280;2591;48.144;15.152;2023-08-07T13:52:43;75405.50;;;-144.65;100.00
5146;BME280;2591;48.144;15.152;2023-08-07T13:55:34;75413.66;;;-144.65;100.00
5146;BME280;2591;48.144;15.152;2023-08-07T13:58:21;75423.84;;;-144.65;100.00
5146;BME280;2591;48.144;15.152;2023-08-07T14:01:08;75423.84;;;-144.65;100.00
5146;BME280;2591;48.144;15.152;2023-08-07T14:03:55;75421.78;;;-144.65;100.00
5146;BME280;2591;48.144;15.152;2023-08-07T14:06:42;75411.59;;;-144.65;100.00
5146;BME280;2591;48.144;15.152;2023-08-07T14:09:29;75413.66;;;-144.65;100.00
5146;BME280;2591;48.144;15.152;2023-08-07T14:12:16;75417.72;;;-144.65;100.00
5146;BME280;2591;48.144;15.152;2023-08-07T14:15:05;75415.69;;;-144.65;100.00
5146;BME280;2591;48.144;15.152;2023-08-07T14:17:52;75407.53;;;-144.65;100.00
5146;BME280;2591;48.144;15.152;2023-08-07T14:20:38;75401.41;;;-144.65;100.00
5146;BME280;2591;48.144;15.152;2023-08-07T14:23:44;75389.19;;;-144.65;100.00
5146;BME280;2591;48.144;15.152;2023-08-07T14:26:31;75372.88;;;-144.65;100.00
5146;BME280;2591;48.144;15.152;2023-08-07T14:29:18;75340.25;;;-144.65;100.00